createdAt,value
2019-01-23T00:00:30.961Z,44.47
2019-01-23T00:05:27.042Z,39.47
2019-01-23T00:10:22.938Z,40.10
2019-01-23T00:15:18.962Z,39.67
2019-01-23T00:20:14.976Z,46.57
2019-01-23T00:25:10.892Z,35.87
2019-01-23T00:30:10.779Z,42.43
2019-01-23T00:35:06.988Z,41.93
2019-01-23T00:40:06.710Z,40.07
2019-01-23T00:45:04.928Z,38.80
2019-01-23T00:50:00.828Z,41.97
2019-01-23T00:54:56.741Z,38.97
2019-01-23T00:59:53.559Z,42.73
2019-01-23T01:04:49.456Z,41.73
2019-01-23T01:09:45.382Z,42.40
2019-01-23T01:14:41.252Z,36.23
2019-01-23T01:19:37.149Z,40.07
2019-01-23T01:24:33.073Z,41.50
2019-01-23T01:29:28.963Z,43.23
2019-01-23T01:34:24.863Z,43.87
2019-01-23T01:39:20.771Z,44.97
2019-01-23T01:44:16.682Z,42.50
2019-01-23T01:49:12.573Z,36.07
2019-01-23T01:54:08.485Z,42.30
2019-01-23T01:59:04.393Z,41.73
2019-01-23T02:04:00.296Z,40.50
2019-01-23T02:08:56.224Z,47.93
2019-01-23T02:13:52.116Z,39.77
2019-01-23T02:18:48.005Z,41.87
2019-01-23T02:23:43.898Z,42.27
2019-01-23T02:28:39.806Z,54.40
2019-01-23T02:33:35.704Z,40.63
2019-01-23T02:38:31.723Z,46.33
2019-01-23T02:43:27.622Z,45.90
2019-01-23T02:48:23.536Z,44.53
2019-01-23T02:53:19.448Z,49.50
2019-01-23T02:58:15.370Z,47.00
2019-01-23T03:03:11.259Z,51.03
2019-01-23T03:08:07.197Z,39.97
2019-01-23T03:13:03.283Z,45.60
2019-01-23T03:17:59.204Z,48.83
2019-01-23T03:22:55.100Z,45.80
2019-01-23T03:27:51.251Z,47.87
2019-01-23T03:32:47.387Z,55.23
2019-01-23T03:37:43.465Z,50.73
2019-01-23T03:42:39.458Z,38.00
2019-01-23T03:47:35.360Z,50.70
2019-01-23T03:52:31.261Z,46.17
2019-01-23T03:57:27.146Z,47.30
2019-01-23T04:02:23.033Z,47.93
2019-01-23T04:07:18.954Z,51.10
2019-01-23T04:12:14.840Z,46.70
2019-01-23T04:17:10.731Z,45.20
2019-01-23T04:22:06.638Z,39.00
2019-01-23T04:27:02.597Z,44.47
2019-01-23T04:31:58.499Z,44.80
2019-01-23T04:36:54.400Z,42.03
2019-01-23T04:41:50.295Z,48.53
2019-01-23T04:46:46.287Z,49.53
2019-01-23T04:51:44.078Z,52.23
2019-01-23T04:56:39.974Z,46.17
2019-01-23T05:01:35.855Z,45.97
2019-01-23T05:06:31.749Z,49.57
2019-01-23T05:11:27.637Z,47.77
2019-01-23T05:16:23.529Z,53.40
2019-01-23T05:21:19.416Z,55.13
2019-01-23T05:26:15.306Z,51.73
2019-01-23T05:31:11.197Z,56.17
2019-01-23T05:36:07.190Z,48.13
2019-01-23T05:41:03.888Z,46.63
2019-01-23T05:45:59.787Z,51.47
2019-01-23T05:50:55.751Z,53.87
2019-01-23T05:55:51.621Z,46.50
2019-01-23T06:00:47.666Z,47.83
2019-01-23T06:05:43.691Z,46.97
2019-01-23T06:10:39.582Z,43.70
2019-01-23T06:15:35.594Z,52.63
2019-01-23T06:20:31.495Z,47.03
2019-01-23T06:25:27.395Z,49.73
2019-01-23T06:30:29.941Z,46.17
2019-01-23T06:35:25.801Z,48.70
2019-01-23T06:40:21.703Z,46.23
2019-01-23T06:45:17.995Z,42.03
2019-01-23T06:50:18.614Z,47.33
2019-01-23T06:55:14.604Z,43.30
2019-01-23T07:00:17.592Z,52.03
2019-01-23T07:05:14.425Z,43.07
2019-01-23T07:10:34.878Z,46.17
2019-01-23T07:15:30.782Z,42.90
2019-01-23T07:20:26.692Z,47.20
2019-01-23T07:25:23.188Z,49.43
2019-01-23T07:30:26.887Z,43.50
2019-01-23T07:35:22.960Z,39.37
2019-01-23T07:40:18.865Z,50.03
2019-01-23T07:45:17.868Z,51.37
2019-01-23T07:50:13.979Z,45.73
2019-01-23T07:55:12.388Z,50.93
2019-01-23T08:00:17.553Z,48.27
2019-01-23T08:05:19.625Z,44.33
2019-01-23T08:10:16.337Z,45.77
2019-01-23T08:15:16.067Z,42.83
2019-01-23T08:20:14.671Z,48.53
2019-01-23T08:25:11.208Z,44.10
2019-01-23T08:30:15.097Z,45.97
2019-01-23T08:35:12.000Z,48.10
2019-01-23T08:40:11.022Z,47.20
2019-01-23T08:45:09.236Z,49.20
2019-01-23T08:50:08.948Z,55.47
2019-01-23T08:55:05.652Z,43.53
2019-01-23T09:00:04.598Z,45.00
2019-01-23T09:05:00.626Z,52.13
2019-01-23T09:09:56.518Z,45.67
2019-01-23T09:14:52.418Z,44.60
2019-01-23T09:19:48.342Z,36.67
2019-01-23T09:24:44.245Z,42.50
2019-01-23T09:29:40.170Z,41.13
2019-01-23T09:34:39.881Z,46.67
2019-01-23T09:39:46.755Z,47.30
2019-01-23T09:44:46.576Z,39.83
2019-01-23T09:50:24.335Z,51.50
2019-01-23T09:55:20.220Z,42.87
2019-01-23T10:00:19.540Z,38.47
2019-01-23T10:05:15.448Z,42.03
2019-01-23T10:10:17.346Z,53.17
2019-01-23T10:15:16.863Z,50.80
2019-01-23T10:20:12.861Z,44.87
2019-01-23T10:25:08.854Z,52.00
2019-01-23T10:30:10.482Z,51.33
2019-01-23T10:35:09.882Z,43.50
2019-01-23T10:40:12.339Z,52.83
2019-01-23T10:45:10.242Z,43.57
2019-01-23T10:50:12.205Z,41.77
2019-01-23T10:55:08.315Z,48.90
2019-01-23T11:00:19.046Z,52.83
2019-01-23T11:05:18.259Z,47.60
2019-01-23T11:10:21.053Z,55.50
2019-01-23T11:15:17.122Z,46.03
2019-01-23T11:20:15.362Z,45.20
2019-01-23T11:25:13.365Z,41.40
2019-01-23T11:30:13.819Z,45.90
2019-01-23T11:35:09.928Z,46.00
2019-01-23T11:40:27.630Z,46.27
2019-01-23T11:45:23.739Z,45.70
2019-01-23T11:50:22.908Z,45.63
2019-01-23T11:55:17.812Z,42.27
2019-01-23T12:00:19.221Z,53.77
2019-01-23T12:05:17.216Z,47.30
2019-01-23T12:10:15.973Z,50.37
2019-01-23T12:15:14.880Z,53.87
2019-01-23T12:20:11.395Z,51.40
2019-01-23T12:25:08.795Z,55.03
2019-01-23T12:30:19.712Z,47.37
2019-01-23T12:35:15.789Z,59.63
2019-01-23T12:40:16.735Z,56.60
2019-01-23T12:45:26.503Z,45.33
2019-01-23T12:50:25.356Z,52.93
2019-01-23T12:55:21.465Z,50.37
2019-01-23T13:00:45.449Z,52.40
2019-01-23T13:05:41.432Z,45.40
2019-01-23T13:10:37.338Z,60.53
2019-01-23T13:15:33.341Z,48.40
2019-01-23T13:20:29.235Z,46.10
2019-01-23T13:25:27.133Z,46.43
2019-01-23T13:30:25.487Z,49.50
2019-01-23T13:35:27.046Z,51.30
2019-01-23T13:40:25.347Z,44.10
2019-01-23T13:45:21.236Z,50.83
2019-01-23T13:50:17.328Z,48.47
2019-01-23T13:55:19.205Z,42.40
2019-01-23T14:00:28.955Z,48.07
2019-01-23T14:05:25.130Z,41.70
2019-01-23T14:10:21.131Z,46.27
2019-01-23T14:15:29.553Z,52.70
2019-01-23T14:20:25.769Z,46.17
2019-01-23T14:25:21.778Z,51.30
2019-01-23T14:30:31.572Z,51.67
2019-01-23T14:35:28.399Z,58.00
2019-01-23T14:40:25.713Z,48.97
2019-01-23T14:45:22.116Z,49.30
2019-01-23T14:50:20.318Z,38.50
2019-01-23T14:55:16.529Z,42.87
2019-01-23T15:00:24.827Z,49.73
2019-01-23T15:05:20.933Z,49.40
2019-01-23T15:10:42.822Z,43.80
2019-01-23T15:15:38.845Z,48.90
2019-01-23T15:20:36.655Z,54.83
2019-01-23T15:25:33.051Z,49.37
2019-01-23T15:30:29.746Z,47.47
2019-01-23T15:35:25.805Z,50.60
2019-01-23T15:40:46.540Z,49.93
2019-01-23T15:45:42.573Z,51.97
2019-01-23T15:50:38.487Z,55.80
2019-01-23T15:55:34.391Z,52.00
2019-01-23T16:00:31.623Z,48.97
2019-01-23T16:05:27.603Z,44.73
2019-01-23T16:10:27.415Z,55.17
2019-01-23T16:15:25.431Z,52.27
2019-01-23T16:20:21.323Z,52.60
2019-01-23T16:25:17.317Z,49.47
2019-01-23T16:30:29.782Z,51.37
2019-01-23T16:35:25.790Z,51.60
2019-01-23T16:40:21.722Z,49.10
2019-01-23T16:45:18.814Z,44.97
2019-01-23T16:50:23.027Z,49.93
2019-01-23T16:55:19.015Z,53.77
2019-01-23T17:00:17.814Z,51.57
2019-01-23T17:05:17.110Z,51.17
2019-01-23T17:10:15.966Z,46.20
2019-01-23T17:15:12.073Z,53.77
2019-01-23T17:20:34.683Z,50.13
2019-01-23T17:25:30.599Z,50.67
2019-01-23T17:30:26.600Z,56.10
2019-01-23T17:35:22.542Z,54.57
2019-01-23T17:40:23.042Z,50.63
2019-01-23T17:45:24.625Z,44.47
2019-01-23T17:50:22.327Z,56.53
2019-01-23T17:55:24.335Z,60.53
2019-01-23T18:00:27.914Z,72.83
2019-01-23T18:05:24.000Z,54.77
2019-01-23T18:10:20.292Z,67.23
2019-01-23T18:15:19.705Z,59.60
2019-01-23T18:20:44.298Z,63.27
2019-01-23T18:25:40.301Z,60.47
2019-01-23T18:31:10.843Z,60.30
2019-01-23T18:36:25.237Z,61.40
2019-01-23T18:41:44.794Z,56.63
2019-01-23T18:46:45.029Z,63.87
2019-01-23T18:51:41.693Z,56.83
2019-01-23T18:56:37.585Z,59.80
2019-01-23T19:01:33.506Z,65.10
2019-01-23T19:06:29.521Z,59.30
2019-01-23T19:11:25.493Z,62.40
2019-01-23T19:16:21.390Z,54.47
2019-01-23T19:21:17.389Z,57.57
2019-01-23T19:26:13.290Z,63.77
2019-01-23T19:31:09.199Z,61.53
2019-01-23T19:36:05.094Z,60.63
2019-01-23T19:41:01.099Z,61.07
2019-01-23T19:45:57.094Z,77.40
2019-01-23T19:50:53.002Z,54.83
2019-01-23T19:55:48.897Z,58.57
2019-01-23T20:00:57.786Z,67.80
2019-01-23T20:05:53.816Z,80.30
2019-01-23T20:10:49.808Z,75.63
2019-01-23T20:15:45.705Z,67.13
2019-01-23T20:20:41.614Z,64.53
2019-01-23T20:25:38.684Z,78.30
2019-01-23T20:30:38.031Z,71.50
2019-01-23T20:35:33.987Z,79.67
2019-01-23T20:40:29.890Z,79.03
2019-01-23T20:45:25.882Z,77.97
2019-01-23T20:50:27.770Z,83.13
2019-01-23T20:55:23.765Z,70.20
2019-01-23T21:00:28.158Z,79.63
2019-01-23T21:05:24.207Z,85.53
2019-01-23T21:10:22.205Z,79.50
2019-01-23T21:15:26.648Z,94.60
2019-01-23T21:20:22.635Z,77.83
2019-01-23T21:25:18.631Z,77.70
2019-01-23T21:30:28.971Z,78.13
2019-01-23T21:35:25.081Z,88.00
2019-01-23T21:40:27.209Z,79.70
2019-01-23T21:45:23.110Z,93.63
2019-01-23T21:50:21.010Z,79.37
2019-01-23T21:55:19.297Z,78.17
2019-01-23T22:00:31.234Z,90.40
2019-01-23T22:05:27.294Z,85.27
2019-01-23T22:10:25.116Z,84.73
2019-01-23T22:15:31.317Z,85.60
2019-01-23T22:20:32.337Z,88.93
2019-01-23T22:25:28.262Z,99.00
2019-01-23T22:30:38.203Z,90.87
2019-01-23T22:35:46.281Z,82.20
2019-01-23T22:40:42.182Z,82.23
2019-01-23T22:45:38.075Z,83.17
2019-01-23T22:50:34.068Z,83.37
2019-01-23T22:55:29.966Z,82.83
2019-01-23T23:00:37.766Z,74.60
2019-01-23T23:05:33.744Z,91.17
2019-01-23T23:10:30.782Z,81.17
2019-01-23T23:15:27.289Z,92.07
2019-01-23T23:20:23.187Z,96.53
2019-01-23T23:25:19.080Z,99.60
2019-01-23T23:30:24.442Z,89.50
2019-01-23T23:35:20.531Z,94.63
2019-01-23T23:40:16.431Z,80.90
2019-01-23T23:45:14.228Z,86.27
2019-01-23T23:50:12.942Z,84.00
2019-01-23T23:55:10.228Z,91.93
